sensor_id;sensor_type;location;lat;lon;timestamp;P1;durP1;ratioP1;P2;durP2;ratioP2
29246;SDS011;16272;48.188;9.964;2023-08-20T00:01:23;12.85;;;8.02;;
29246;SDS011;16272;48.188;9.964;2023-08-20T00:03:50;13.93;;;7.78;;
29246;SDS011;16272;48.188;9.964;2023-08-20T00:06:17;15.02;;;8.38;;
29246;SDS011;16272;48.188;9.964;2023-08-20T00:08:42;13.00;;;7.60;;
29246;SDS011;16272;48.188;9.964;2023-08-20T00:11:08;13.73;;;7.53;;
29246;SDS011;16272;48.188;9.964;2023-08-20T00:13:33;13.43;;;7.68;;
29246;SDS011;16272;48.188;9.964;2023-08-20T00:15:59;12.87;;;7.03;;
29246;SDS011;16272;48.188;9.964;2023-08-20T00:18:24;12.10;;;7.78;;
29246;SDS011;16272;48.188;9.964;2023-08-20T00:20:50;14.30;;;8.10;;
29246;SDS011;16272;48.188;9.964;2023-08-20T00:23:17;12.90;;;8.18;;
29246;SDS011;16272;48.188;9.964;2023-08-20T00:25:43;12.60;;;8.10;;
29246;SDS011;16272;48.188;9.964;2023-08-20T00:28:09;11.27;;;6.88;;
29246;SDS011;16272;48.188;9.964;2023-08-20T00:30:34;13.47;;;7.43;;
29246;SDS011;16272;48.188;9.964;2023-08-20T00:32:59;15.50;;;8.17;;
29246;SDS011;16272;48.188;9.964;2023-08-20T00:35:25;14.13;;;7.80;;
29246;SDS011;16272;48.188;9.964;2023-08-20T00:37:50;13.87;;;8.07;;
29246;SDS011;16272;48.188;9.964;2023-08-20T00:40:15;14.43;;;8.33;;
29246;SDS011;16272;48.188;9.964;2023-08-20T00:42:41;12.33;;;7.40;;
29246;SDS011;16272;48.188;9.964;2023-08-20T00:45:06;15.18;;;8.52;;
29246;SDS011;16272;48.188;9.964;2023-08-20T00:47:31;14.23;;;8.03;;
29246;SDS011;16272;48.188;9.964;2023-08-20T00:49:57;15.83;;;8.77;;
29246;SDS011;16272;48.188;9.964;2023-08-20T00:52:23;13.10;;;8.05;;
29246;SDS011;16272;48.188;9.964;2023-08-20T00:54:49;14.03;;;8.20;;
29246;SDS011;16272;48.188;9.964;2023-08-20T00:57:15;13.52;;;8.05;;
29246;SDS011;16272;48.188;9.964;2023-08-20T00:59:43;12.70;;;7.80;;
29246;SDS011;16272;48.188;9.964;2023-08-20T01:02:09;13.45;;;7.90;;
29246;SDS011;16272;48.188;9.964;2023-08-20T01:04:34;14.03;;;8.30;;
29246;SDS011;16272;48.188;9.964;2023-08-20T01:12:46;11.82;;;7.35;;
29246;SDS011;16272;48.188;9.964;2023-08-20T01:15:13;14.77;;;7.83;;
29246;SDS011;16272;48.188;9.964;2023-08-20T01:17:39;13.20;;;7.60;;
29246;SDS011;16272;48.188;9.964;2023-08-20T01:20:05;12.68;;;8.23;;
29246;SDS011;16272;48.188;9.964;2023-08-20T01:30:53;15.30;;;8.45;;
29246;SDS011;16272;48.188;9.964;2023-08-20T01:33:19;13.93;;;7.50;;
29246;SDS011;16272;48.188;9.964;2023-08-20T01:35:45;14.53;;;8.00;;
29246;SDS011;16272;48.188;9.964;2023-08-20T01:38:10;13.83;;;8.20;;
29246;SDS011;16272;48.188;9.964;2023-08-20T01:40:36;14.53;;;8.33;;
29246;SDS011;16272;48.188;9.964;2023-08-20T01:43:01;14.80;;;8.37;;
29246;SDS011;16272;48.188;9.964;2023-08-20T01:45:27;15.00;;;7.78;;
29246;SDS011;16272;48.188;9.964;2023-08-20T01:47:52;12.73;;;7.90;;
29246;SDS011;16272;48.188;9.964;2023-08-20T01:50:18;13.70;;;7.47;;
29246;SDS011;16272;48.188;9.964;2023-08-20T01:52:43;15.83;;;8.40;;
29246;SDS011;16272;48.188;9.964;2023-08-20T01:55:10;15.07;;;8.23;;
29246;SDS011;16272;48.188;9.964;2023-08-20T01:57:36;15.30;;;7.80;;
29246;SDS011;16272;48.188;9.964;2023-08-20T02:00:01;14.43;;;7.65;;
29246;SDS011;16272;48.188;9.964;2023-08-20T02:02:29;14.65;;;7.45;;
29246;SDS011;16272;48.188;9.964;2023-08-20T02:04:54;13.97;;;8.10;;
29246;SDS011;16272;48.188;9.964;2023-08-20T02:07:20;13.03;;;7.60;;
29246;SDS011;16272;48.188;9.964;2023-08-20T02:09:45;13.30;;;7.90;;
29246;SDS011;16272;48.188;9.964;2023-08-20T02:12:10;14.17;;;7.93;;
29246;SDS011;16272;48.188;9.964;2023-08-20T02:14:36;14.53;;;7.37;;
29246;SDS011;16272;48.188;9.964;2023-08-20T02:17:02;13.90;;;7.67;;
29246;SDS011;16272;48.188;9.964;2023-08-20T02:19:28;15.40;;;7.80;;
29246;SDS011;16272;48.188;9.964;2023-08-20T02:21:53;13.43;;;7.65;;
29246;SDS011;16272;48.188;9.964;2023-08-20T02:24:18;14.63;;;7.97;;
29246;SDS011;16272;48.188;9.964;2023-08-20T02:26:44;14.70;;;8.10;;
29246;SDS011;16272;48.188;9.964;2023-08-20T02:29:09;14.60;;;8.17;;
29246;SDS011;16272;48.188;9.964;2023-08-20T02:31:35;14.23;;;8.60;;
29246;SDS011;16272;48.188;9.964;2023-08-20T02:34:00;15.63;;;8.10;;
29246;SDS011;16272;48.188;9.964;2023-08-20T02:36:26;15.60;;;7.90;;
29246;SDS011;16272;48.188;9.964;2023-08-20T02:38:51;13.40;;;7.80;;
29246;SDS011;16272;48.188;9.964;2023-08-20T02:41:16;17.43;;;7.90;;
29246;SDS011;16272;48.188;9.964;2023-08-20T02:43:42;14.00;;;7.47;;
29246;SDS011;16272;48.188;9.964;2023-08-20T02:46:07;15.18;;;8.25;;
29246;SDS011;16272;48.188;9.964;2023-08-20T02:48:32;15.27;;;8.03;;
29246;SDS011;16272;48.188;9.964;2023-08-20T02:50:58;12.97;;;7.93;;
29246;SDS011;16272;48.188;9.964;2023-08-20T02:53:23;13.57;;;7.67;;
29246;SDS011;16272;48.188;9.964;2023-08-20T02:55:48;13.13;;;8.53;;
29246;SDS011;16272;48.188;9.964;2023-08-20T02:58:14;17.23;;;8.70;;
29246;SDS011;16272;48.188;9.964;2023-08-20T03:00:39;17.47;;;8.37;;
29246;SDS011;16272;48.188;9.964;2023-08-20T03:03:05;13.17;;;7.63;;
29246;SDS011;16272;48.188;9.964;2023-08-20T03:05:32;13.82;;;7.57;;
29246;SDS011;16272;48.188;9.964;2023-08-20T03:07:58;13.47;;;7.13;;
29246;SDS011;16272;48.188;9.964;2023-08-20T03:10:23;12.60;;;7.60;;
29246;SDS011;16272;48.188;9.964;2023-08-20T03:12:49;13.68;;;7.40;;
29246;SDS011;16272;48.188;9.964;2023-08-20T03:15:14;13.50;;;8.07;;
29246;SDS011;16272;48.188;9.964;2023-08-20T03:17:40;14.27;;;8.60;;
29246;SDS011;16272;48.188;9.964;2023-08-20T03:20:05;14.33;;;7.80;;
29246;SDS011;16272;48.188;9.964;2023-08-20T03:22:31;17.13;;;8.20;;
29246;SDS011;16272;48.188;9.964;2023-08-20T03:24:57;14.82;;;8.60;;
29246;SDS011;16272;48.188;9.964;2023-08-20T03:27:22;15.60;;;8.03;;
29246;SDS011;16272;48.188;9.964;2023-08-20T03:29:47;13.97;;;7.90;;
29246;SDS011;16272;48.188;9.964;2023-08-20T03:32:13;17.03;;;8.37;;
29246;SDS011;16272;48.188;9.964;2023-08-20T03:34:38;17.77;;;8.47;;
29246;SDS011;16272;48.188;9.964;2023-08-20T03:37:03;12.00;;;7.37;;
29246;SDS011;16272;48.188;9.964;2023-08-20T03:39:29;14.23;;;7.80;;
29246;SDS011;16272;48.188;9.964;2023-08-20T03:41:56;13.90;;;7.77;;
29246;SDS011;16272;48.188;9.964;2023-08-20T03:44:22;13.38;;;7.72;;
29246;SDS011;16272;48.188;9.964;2023-08-20T03:46:47;16.87;;;7.40;;
29246;SDS011;16272;48.188;9.964;2023-08-20T03:49:12;12.37;;;7.37;;
29246;SDS011;16272;48.188;9.964;2023-08-20T03:51:38;12.98;;;7.40;;
29246;SDS011;16272;48.188;9.964;2023-08-20T03:54:03;14.93;;;8.00;;
29246;SDS011;16272;48.188;9.964;2023-08-20T03:56:29;15.20;;;7.47;;
29246;SDS011;16272;48.188;9.964;2023-08-20T03:58:54;14.13;;;7.67;;
29246;SDS011;16272;48.188;9.964;2023-08-20T04:01:20;13.65;;;8.32;;
29246;SDS011;16272;48.188;9.964;2023-08-20T04:03:46;14.57;;;8.00;;
29246;SDS011;16272;48.188;9.964;2023-08-20T04:06:12;14.45;;;8.13;;
29246;SDS011;16272;48.188;9.964;2023-08-20T04:08:38;13.23;;;8.43;;
29246;SDS011;16272;48.188;9.964;2023-08-20T04:11:03;13.93;;;8.50;;
29246;SDS011;16272;48.188;9.964;2023-08-20T04:13:29;16.83;;;8.70;;
29246;SDS011;16272;48.188;9.964;2023-08-20T04:15:55;17.42;;;8.57;;
29246;SDS011;16272;48.188;9.964;2023-08-20T04:18:20;15.48;;;8.68;;
29246;SDS011;16272;48.188;9.964;2023-08-20T04:20:46;13.50;;;8.10;;
29246;SDS011;16272;48.188;9.964;2023-08-20T04:23:11;14.03;;;8.47;;
29246;SDS011;16272;48.188;9.964;2023-08-20T04:25:36;13.50;;;8.17;;
29246;SDS011;16272;48.188;9.964;2023-08-20T04:28:02;14.07;;;8.93;;
29246;SDS011;16272;48.188;9.964;2023-08-20T04:30:27;14.70;;;8.10;;
29246;SDS011;16272;48.188;9.964;2023-08-20T04:32:53;13.90;;;8.43;;
29246;SDS011;16272;48.188;9.964;2023-08-20T04:35:18;12.53;;;8.23;;
29246;SDS011;16272;48.188;9.964;2023-08-20T04:37:43;12.87;;;7.57;;
29246;SDS011;16272;48.188;9.964;2023-08-20T04:40:09;12.93;;;8.10;;
29246;SDS011;16272;48.188;9.964;2023-08-20T04:42:34;14.27;;;8.00;;
29246;SDS011;16272;48.188;9.964;2023-08-20T04:45:00;13.47;;;8.20;;
29246;SDS011;16272;48.188;9.964;2023-08-20T04:47:26;18.17;;;8.63;;
29246;SDS011;16272;48.188;9.964;2023-08-20T04:49:51;13.43;;;8.35;;
29246;SDS011;16272;48.188;9.964;2023-08-20T04:52:17;13.87;;;7.87;;
29246;SDS011;16272;48.188;9.964;2023-08-20T04:54:42;13.23;;;8.17;;
29246;SDS011;16272;48.188;9.964;2023-08-20T04:57:08;14.03;;;8.47;;
29246;SDS011;16272;48.188;9.964;2023-08-20T04:59:33;15.70;;;8.90;;
29246;SDS011;16272;48.188;9.964;2023-08-20T05:01:58;13.30;;;8.07;;
29246;SDS011;16272;48.188;9.964;2023-08-20T05:04:23;15.13;;;8.10;;
29246;SDS011;16272;48.188;9.964;2023-08-20T05:06:49;14.00;;;8.03;;
29246;SDS011;16272;48.188;9.964;2023-08-20T05:09:14;13.57;;;8.80;;
29246;SDS011;16272;48.188;9.964;2023-08-20T05:11:40;14.73;;;8.65;;
29246;SDS011;16272;48.188;9.964;2023-08-20T05:14:06;15.33;;;8.87;;
29246;SDS011;16272;48.188;9.964;2023-08-20T05:16:31;15.53;;;9.20;;
29246;SDS011;16272;48.188;9.964;2023-08-20T05:18:57;16.07;;;9.17;;
29246;SDS011;16272;48.188;9.964;2023-08-20T05:21:22;15.83;;;9.20;;
29246;SDS011;16272;48.188;9.964;2023-08-20T05:23:47;15.20;;;9.57;;
29246;SDS011;16272;48.188;9.964;2023-08-20T05:26:13;15.40;;;9.30;;
29246;SDS011;16272;48.188;9.964;2023-08-20T05:28:38;15.50;;;9.50;;
29246;SDS011;16272;48.188;9.964;2023-08-20T05:31:03;14.57;;;8.87;;
29246;SDS011;16272;48.188;9.964;2023-08-20T05:33:28;15.27;;;9.40;;
29246;SDS011;16272;48.188;9.964;2023-08-20T05:35:54;16.10;;;9.47;;
29246;SDS011;16272;48.188;9.964;2023-08-20T05:38:19;15.60;;;9.63;;
29246;SDS011;16272;48.188;9.964;2023-08-20T05:40:44;16.13;;;9.00;;
29246;SDS011;16272;48.188;9.964;2023-08-20T05:43:10;14.80;;;9.33;;
29246;SDS011;16272;48.188;9.964;2023-08-20T05:45:35;14.67;;;9.60;;
29246;SDS011;16272;48.188;9.964;2023-08-20T05:48:01;16.27;;;9.57;;
29246;SDS011;16272;48.188;9.964;2023-08-20T05:50:26;17.30;;;9.47;;
29246;SDS011;16272;48.188;9.964;2023-08-20T05:52:52;16.20;;;10.30;;
29246;SDS011;16272;48.188;9.964;2023-08-20T05:55:17;15.57;;;9.63;;
29246;SDS011;16272;48.188;9.964;2023-08-20T05:57:43;16.07;;;9.93;;
29246;SDS011;16272;48.188;9.964;2023-08-20T06:00:08;17.43;;;9.23;;
29246;SDS011;16272;48.188;9.964;2023-08-20T06:02:34;15.40;;;10.07;;
29246;SDS011;16272;48.188;9.964;2023-08-20T06:04:59;17.03;;;10.00;;
29246;SDS011;16272;48.188;9.964;2023-08-20T06:07:25;16.77;;;10.33;;
29246;SDS011;16272;48.188;9.964;2023-08-20T06:09:50;16.13;;;9.57;;
29246;SDS011;16272;48.188;9.964;2023-08-20T06:12:16;15.73;;;9.73;;
29246;SDS011;16272;48.188;9.964;2023-08-20T06:14:42;14.97;;;9.37;;
29246;SDS011;16272;48.188;9.964;2023-08-20T06:17:07;16.67;;;10.17;;
29246;SDS011;16272;48.188;9.964;2023-08-20T06:19:33;17.30;;;10.67;;
29246;SDS011;16272;48.188;9.964;2023-08-20T06:21:58;19.37;;;10.73;;
29246;SDS011;16272;48.188;9.964;2023-08-20T06:24:24;15.93;;;10.33;;
29246;SDS011;16272;48.188;9.964;2023-08-20T06:26:49;14.80;;;9.38;;
29246;SDS011;16272;48.188;9.964;2023-08-20T06:29:14;18.23;;;9.90;;
29246;SDS011;16272;48.188;9.964;2023-08-20T06:31:40;17.47;;;10.30;;
29246;SDS011;16272;48.188;9.964;2023-08-20T06:34:06;18.07;;;11.17;;
29246;SDS011;16272;48.188;9.964;2023-08-20T06:36:32;16.95;;;11.20;;
29246;SDS011;16272;48.188;9.964;2023-08-20T06:38:57;18.57;;;11.37;;
29246;SDS011;16272;48.188;9.964;2023-08-20T06:41:22;17.13;;;11.00;;
29246;SDS011;16272;48.188;9.964;2023-08-20T06:43:48;17.77;;;11.02;;
29246;SDS011;16272;48.188;9.964;2023-08-20T06:46:14;19.10;;;11.50;;
29246;SDS011;16272;48.188;9.964;2023-08-20T06:48:39;17.55;;;10.68;;
29246;SDS011;16272;48.188;9.964;2023-08-20T06:51:11;18.73;;;10.97;;
29246;SDS011;16272;48.188;9.964;2023-08-20T06:53:38;17.27;;;11.02;;
29246;SDS011;16272;48.188;9.964;2023-08-20T06:56:03;18.33;;;11.57;;
29246;SDS011;16272;48.188;9.964;2023-08-20T06:58:28;18.93;;;11.77;;
29246;SDS011;16272;48.188;9.964;2023-08-20T07:00:54;16.95;;;10.93;;
29246;SDS011;16272;48.188;9.964;2023-08-20T07:03:20;17.63;;;10.77;;
29246;SDS011;16272;48.188;9.964;2023-08-20T07:05:46;18.13;;;10.88;;
29246;SDS011;16272;48.188;9.964;2023-08-20T07:08:11;18.63;;;11.40;;
29246;SDS011;16272;48.188;9.964;2023-08-20T07:10:37;17.30;;;11.23;;
29246;SDS011;16272;48.188;9.964;2023-08-20T07:13:02;17.97;;;11.20;;
29246;SDS011;16272;48.188;9.964;2023-08-20T07:15:28;17.80;;;11.30;;
29246;SDS011;16272;48.188;9.964;2023-08-20T07:17:54;17.52;;;10.82;;
29246;SDS011;16272;48.188;9.964;2023-08-20T07:20:19;16.73;;;11.03;;
29246;SDS011;16272;48.188;9.964;2023-08-20T07:22:44;20.57;;;10.90;;
29246;SDS011;16272;48.188;9.964;2023-08-20T07:25:10;19.27;;;11.50;;
29246;SDS011;16272;48.188;9.964;2023-08-20T07:27:35;17.83;;;11.20;;
29246;SDS011;16272;48.188;9.964;2023-08-20T07:30:00;16.43;;;10.73;;
29246;SDS011;16272;48.188;9.964;2023-08-20T07:32:25;16.10;;;10.13;;
29246;SDS011;16272;48.188;9.964;2023-08-20T07:34:51;15.67;;;10.20;;
29246;SDS011;16272;48.188;9.964;2023-08-20T07:37:16;18.63;;;10.40;;
29246;SDS011;16272;48.188;9.964;2023-08-20T07:39:42;15.65;;;10.15;;
29246;SDS011;16272;48.188;9.964;2023-08-20T07:42:07;14.73;;;9.67;;
29246;SDS011;16272;48.188;9.964;2023-08-20T07:44:32;15.27;;;9.87;;
29246;SDS011;16272;48.188;9.964;2023-08-20T07:46:58;14.80;;;9.60;;
29246;SDS011;16272;48.188;9.964;2023-08-20T07:49:23;15.57;;;9.17;;
29246;SDS011;16272;48.188;9.964;2023-08-20T07:51:49;15.20;;;9.43;;
29246;SDS011;16272;48.188;9.964;2023-08-20T07:54:17;16.20;;;9.73;;
29246;SDS011;16272;48.188;9.964;2023-08-20T07:56:42;14.70;;;9.70;;
29246;SDS011;16272;48.188;9.964;2023-08-20T07:59:08;13.73;;;9.13;;
29246;SDS011;16272;48.188;9.964;2023-08-20T08:01:33;17.63;;;9.93;;
29246;SDS011;16272;48.188;9.964;2023-08-20T08:03:58;14.17;;;9.60;;
29246;SDS011;16272;48.188;9.964;2023-08-20T08:06:24;13.73;;;9.25;;
29246;SDS011;16272;48.188;9.964;2023-08-20T08:08:49;14.87;;;9.13;;
29246;SDS011;16272;48.188;9.964;2023-08-20T08:11:14;17.70;;;9.50;;
29246;SDS011;16272;48.188;9.964;2023-08-20T08:13:40;14.77;;;9.07;;
29246;SDS011;16272;48.188;9.964;2023-08-20T08:16:05;12.73;;;8.50;;
29246;SDS011;16272;48.188;9.964;2023-08-20T08:18:31;17.30;;;8.90;;
29246;SDS011;16272;48.188;9.964;2023-08-20T08:20:56;16.10;;;8.97;;
29246;SDS011;16272;48.188;9.964;2023-08-20T08:23:21;15.73;;;8.57;;
29246;SDS011;16272;48.188;9.964;2023-08-20T08:25:46;14.87;;;9.10;;
29246;SDS011;16272;48.188;9.964;2023-08-20T08:28:12;15.13;;;8.80;;
29246;SDS011;16272;48.188;9.964;2023-08-20T08:30:37;16.33;;;8.70;;
29246;SDS011;16272;48.188;9.964;2023-08-20T08:33:03;14.45;;;8.98;;
29246;SDS011;16272;48.188;9.964;2023-08-20T08:35:29;13.43;;;8.60;;
29246;SDS011;16272;48.188;9.964;2023-08-20T08:37:54;14.43;;;8.60;;
29246;SDS011;16272;48.188;9.964;2023-08-20T08:40:20;12.77;;;9.20;;
29246;SDS011;16272;48.188;9.964;2023-08-20T08:42:48;13.37;;;8.73;;
29246;SDS011;16272;48.188;9.964;2023-08-20T08:45:19;14.07;;;9.43;;
29246;SDS011;16272;48.188;9.964;2023-08-20T08:47:46;14.38;;;8.95;;
29246;SDS011;16272;48.188;9.964;2023-08-20T08:50:12;14.68;;;8.82;;
29246;SDS011;16272;48.188;9.964;2023-08-20T08:52:38;13.43;;;8.90;;
29246;SDS011;16272;48.188;9.964;2023-08-20T08:55:04;13.38;;;9.18;;
29246;SDS011;16272;48.188;9.964;2023-08-20T08:57:32;13.38;;;8.98;;
29246;SDS011;16272;48.188;9.964;2023-08-20T08:59:58;13.87;;;8.30;;
29246;SDS011;16272;48.188;9.964;2023-08-20T09:02:23;14.53;;;8.57;;
29246;SDS011;16272;48.188;9.964;2023-08-20T09:04:48;13.77;;;8.93;;
29246;SDS011;16272;48.188;9.964;2023-08-20T09:07:14;13.30;;;8.90;;
29246;SDS011;16272;48.188;9.964;2023-08-20T09:09:43;15.82;;;8.30;;
29246;SDS011;16272;48.188;9.964;2023-08-20T09:12:16;12.07;;;7.95;;
29246;SDS011;16272;48.188;9.964;2023-08-20T09:14:45;12.60;;;8.30;;
29246;SDS011;16272;48.188;9.964;2023-08-20T09:17:12;12.57;;;8.87;;
29246;SDS011;16272;48.188;9.964;2023-08-20T09:19:37;13.90;;;8.90;;
29246;SDS011;16272;48.188;9.964;2023-08-20T09:22:02;13.50;;;8.67;;
29246;SDS011;16272;48.188;9.964;2023-08-20T09:24:32;13.82;;;9.23;;
29246;SDS011;16272;48.188;9.964;2023-08-20T09:26:59;12.30;;;9.70;;
29246;SDS011;16272;48.188;9.964;2023-08-20T09:29:28;14.98;;;8.90;;
29246;SDS011;16272;48.188;9.964;2023-08-20T09:31:59;13.80;;;8.37;;
29246;SDS011;16272;48.188;9.964;2023-08-20T09:34:35;13.02;;;9.05;;
29246;SDS011;16272;48.188;9.964;2023-08-20T09:37:24;10.77;;;7.95;;
29246;SDS011;16272;48.188;9.964;2023-08-20T09:39:49;14.10;;;8.27;;
29246;SDS011;16272;48.188;9.964;2023-08-20T09:42:16;12.30;;;8.00;;
29246;SDS011;16272;48.188;9.964;2023-08-20T09:44:43;14.27;;;9.32;;
29246;SDS011;16272;48.188;9.964;2023-08-20T09:47:10;13.77;;;8.65;;
29246;SDS011;16272;48.188;9.964;2023-08-20T09:49:40;13.90;;;8.38;;
29246;SDS011;16272;48.188;9.964;2023-08-20T09:52:10;13.17;;;8.80;;
29246;SDS011;16272;48.188;9.964;2023-08-20T09:57:35;11.55;;;7.70;;
29246;SDS011;16272;48.188;9.964;2023-08-20T10:00:04;15.77;;;9.15;;
29246;SDS011;16272;48.188;9.964;2023-08-20T10:02:31;13.02;;;8.95;;
29246;SDS011;16272;48.188;9.964;2023-08-20T10:04:58;14.33;;;8.73;;
29246;SDS011;16272;48.188;9.964;2023-08-20T10:07:26;13.93;;;8.50;;
29246;SDS011;16272;48.188;9.964;2023-08-20T10:09:56;12.50;;;8.60;;
29246;SDS011;16272;48.188;9.964;2023-08-20T10:12:25;12.20;;;8.13;;
29246;SDS011;16272;48.188;9.964;2023-08-20T10:14:51;12.52;;;8.65;;
29246;SDS011;16272;48.188;9.964;2023-08-20T10:17:17;12.80;;;8.77;;
29246;SDS011;16272;48.188;9.964;2023-08-20T10:19:42;11.60;;;8.47;;
29246;SDS011;16272;48.188;9.964;2023-08-20T10:22:08;13.17;;;8.50;;
29246;SDS011;16272;48.188;9.964;2023-08-20T10:24:54;12.85;;;7.55;;
29246;SDS011;16272;48.188;9.964;2023-08-20T10:27:25;12.07;;;7.80;;
29246;SDS011;16272;48.188;9.964;2023-08-20T10:29:58;13.25;;;8.48;;
29246;SDS011;16272;48.188;9.964;2023-08-20T10:35:16;11.27;;;7.22;;
29246;SDS011;16272;48.188;9.964;2023-08-20T10:38:02;11.82;;;7.80;;
29246;SDS011;16272;48.188;9.964;2023-08-20T10:46:03;10.50;;;7.80;;
29246;SDS011;16272;48.188;9.964;2023-08-20T10:48:53;11.73;;;7.50;;
29246;SDS011;16272;48.188;9.964;2023-08-20T10:51:24;12.23;;;6.85;;
29246;SDS011;16272;48.188;9.964;2023-08-20T10:56:26;11.00;;;6.80;;
29246;SDS011;16272;48.188;9.964;2023-08-20T10:59:22;10.63;;;7.20;;
29246;SDS011;16272;48.188;9.964;2023-08-20T11:01:51;11.27;;;6.80;;
29246;SDS011;16272;48.188;9.964;2023-08-20T11:04:21;11.48;;;6.68;;
29246;SDS011;16272;48.188;9.964;2023-08-20T11:06:52;12.67;;;6.37;;
29246;SDS011;16272;48.188;9.964;2023-08-20T11:09:22;10.40;;;6.20;;
29246;SDS011;16272;48.188;9.964;2023-08-20T11:11:49;12.27;;;6.63;;
29246;SDS011;16272;48.188;9.964;2023-08-20T11:14:17;14.30;;;6.78;;
29246;SDS011;16272;48.188;9.964;2023-08-20T11:16:44;10.07;;;6.45;;
29246;SDS011;16272;48.188;9.964;2023-08-20T11:19:11;11.20;;;6.53;;
29246;SDS011;16272;48.188;9.964;2023-08-20T11:21:41;12.18;;;6.82;;
29246;SDS011;16272;48.188;9.964;2023-08-20T11:24:08;10.43;;;6.60;;
29246;SDS011;16272;48.188;9.964;2023-08-20T11:26:34;11.50;;;7.25;;
29246;SDS011;16272;48.188;9.964;2023-08-20T11:29:00;12.43;;;7.20;;
29246;SDS011;16272;48.188;9.964;2023-08-20T11:31:37;12.70;;;7.27;;
29246;SDS011;16272;48.188;9.964;2023-08-20T11:34:05;10.15;;;6.72;;
29246;SDS011;16272;48.188;9.964;2023-08-20T11:36:31;11.07;;;6.95;;
29246;SDS011;16272;48.188;9.964;2023-08-20T11:38:56;12.37;;;6.63;;
29246;SDS011;16272;48.188;9.964;2023-08-20T11:41:22;11.90;;;6.45;;
29246;SDS011;16272;48.188;9.964;2023-08-20T11:43:49;10.50;;;6.45;;
29246;SDS011;16272;48.188;9.964;2023-08-20T11:46:15;9.90;;;6.47;;
29246;SDS011;16272;48.188;9.964;2023-08-20T11:49:02;9.43;;;6.68;;
29246;SDS011;16272;48.188;9.964;2023-08-20T11:51:29;10.25;;;7.30;;
29246;SDS011;16272;48.188;9.964;2023-08-20T11:54:08;10.45;;;6.88;;
29246;SDS011;16272;48.188;9.964;2023-08-20T11:56:35;10.20;;;7.63;;
29246;SDS011;16272;48.188;9.964;2023-08-20T11:59:03;10.73;;;6.80;;
29246;SDS011;16272;48.188;9.964;2023-08-20T12:01:31;12.02;;;7.57;;
29246;SDS011;16272;48.188;9.964;2023-08-20T12:04:04;11.77;;;6.75;;
29246;SDS011;16272;48.188;9.964;2023-08-20T12:06:30;11.27;;;7.47;;
29246;SDS011;16272;48.188;9.964;2023-08-20T12:08:56;13.50;;;8.10;;
29246;SDS011;16272;48.188;9.964;2023-08-20T12:11:28;11.85;;;7.70;;
29246;SDS011;16272;48.188;9.964;2023-08-20T12:13:55;12.38;;;6.60;;
29246;SDS011;16272;48.188;9.964;2023-08-20T12:16:21;12.17;;;7.10;;
29246;SDS011;16272;48.188;9.964;2023-08-20T12:18:48;11.50;;;8.40;;
29246;SDS011;16272;48.188;9.964;2023-08-20T12:21:14;12.38;;;7.50;;
29246;SDS011;16272;48.188;9.964;2023-08-20T12:23:40;10.33;;;7.57;;
29246;SDS011;16272;48.188;9.964;2023-08-20T12:26:06;11.13;;;7.40;;
29246;SDS011;16272;48.188;9.964;2023-08-20T12:28:32;12.82;;;6.70;;
29246;SDS011;16272;48.188;9.964;2023-08-20T12:30:58;11.57;;;6.17;;
29246;SDS011;16272;48.188;9.964;2023-08-20T12:33:23;12.07;;;7.40;;
29246;SDS011;16272;48.188;9.964;2023-08-20T12:35:49;19.63;;;7.30;;
29246;SDS011;16272;48.188;9.964;2023-08-20T12:38:14;12.82;;;6.63;;
29246;SDS011;16272;48.188;9.964;2023-08-20T12:40:40;13.00;;;6.55;;
29246;SDS011;16272;48.188;9.964;2023-08-20T12:43:06;33.87;;;9.13;;
29246;SDS011;16272;48.188;9.964;2023-08-20T12:45:31;11.47;;;7.67;;
29246;SDS011;16272;48.188;9.964;2023-08-20T12:47:56;11.13;;;6.87;;
29246;SDS011;16272;48.188;9.964;2023-08-20T12:50:21;14.53;;;6.63;;
29246;SDS011;16272;48.188;9.964;2023-08-20T12:52:47;12.13;;;7.55;;
29246;SDS011;16272;48.188;9.964;2023-08-20T12:55:14;11.03;;;7.43;;
29246;SDS011;16272;48.188;9.964;2023-08-20T12:57:51;12.07;;;7.15;;
29246;SDS011;16272;48.188;9.964;2023-08-20T13:00:26;13.57;;;6.68;;
29246;SDS011;16272;48.188;9.964;2023-08-20T13:02:52;11.32;;;6.50;;
29246;SDS011;16272;48.188;9.964;2023-08-20T13:05:22;11.67;;;6.03;;
29246;SDS011;16272;48.188;9.964;2023-08-20T13:07:49;9.93;;;6.43;;
29246;SDS011;16272;48.188;9.964;2023-08-20T13:10:15;10.60;;;6.93;;
29246;SDS011;16272;48.188;9.964;2023-08-20T13:13:01;13.00;;;6.23;;
29246;SDS011;16272;48.188;9.964;2023-08-20T13:15:26;9.82;;;5.00;;
29246;SDS011;16272;48.188;9.964;2023-08-20T13:17:52;9.30;;;6.25;;
29246;SDS011;16272;48.188;9.964;2023-08-20T13:20:18;9.40;;;5.50;;
29246;SDS011;16272;48.188;9.964;2023-08-20T13:22:48;10.73;;;6.40;;
29246;SDS011;16272;48.188;9.964;2023-08-20T13:25:14;10.32;;;5.85;;
29246;SDS011;16272;48.188;9.964;2023-08-20T13:27:40;9.80;;;5.93;;
29246;SDS011;16272;48.188;9.964;2023-08-20T13:30:06;11.15;;;5.93;;
29246;SDS011;16272;48.188;9.964;2023-08-20T13:32:33;9.68;;;5.57;;
29246;SDS011;16272;48.188;9.964;2023-08-20T13:34:59;11.13;;;6.28;;
29246;SDS011;16272;48.188;9.964;2023-08-20T13:37:25;11.73;;;6.10;;
29246;SDS011;16272;48.188;9.964;2023-08-20T13:39:50;10.48;;;5.80;;
29246;SDS011;16272;48.188;9.964;2023-08-20T13:42:16;10.17;;;6.47;;
29246;SDS011;16272;48.188;9.964;2023-08-20T13:44:41;11.03;;;5.70;;
29246;SDS011;16272;48.188;9.964;2023-08-20T13:47:06;8.93;;;5.22;;
29246;SDS011;16272;48.188;9.964;2023-08-20T13:49:32;9.73;;;5.53;;
29246;SDS011;16272;48.188;9.964;2023-08-20T13:51:57;12.73;;;6.30;;
29246;SDS011;16272;48.188;9.964;2023-08-20T13:54:22;9.13;;;5.27;;
29246;SDS011;16272;48.188;9.964;2023-08-20T13:56:48;11.17;;;6.00;;
29246;SDS011;16272;48.188;9.964;2023-08-20T13:59:13;10.53;;;5.10;;
29246;SDS011;16272;48.188;9.964;2023-08-20T14:01:38;11.03;;;5.80;;
29246;SDS011;16272;48.188;9.964;2023-08-20T14:04:03;9.23;;;5.53;;
29246;SDS011;16272;48.188;9.964;2023-08-20T14:06:29;11.20;;;5.70;;
29246;SDS011;16272;48.188;9.964;2023-08-20T14:08:54;8.43;;;5.13;;
29246;SDS011;16272;48.188;9.964;2023-08-20T14:11:20;15.23;;;5.40;;
29246;SDS011;16272;48.188;9.964;2023-08-20T14:13:47;9.43;;;5.23;;
29246;SDS011;16272;48.188;9.964;2023-08-20T14:16:13;10.88;;;4.75;;
29246;SDS011;16272;48.188;9.964;2023-08-20T14:18:38;10.60;;;5.30;;
29246;SDS011;16272;48.188;9.964;2023-08-20T14:21:03;10.87;;;5.17;;
29246;SDS011;16272;48.188;9.964;2023-08-20T14:23:28;9.43;;;4.70;;
29246;SDS011;16272;48.188;9.964;2023-08-20T14:25:54;10.25;;;5.20;;
29246;SDS011;16272;48.188;9.964;2023-08-20T14:28:20;10.90;;;5.20;;
29246;SDS011;16272;48.188;9.964;2023-08-20T14:30:46;9.60;;;5.72;;
29246;SDS011;16272;48.188;9.964;2023-08-20T14:33:11;8.90;;;5.80;;
29246;SDS011;16272;48.188;9.964;2023-08-20T14:35:36;9.03;;;5.53;;
29246;SDS011;16272;48.188;9.964;2023-08-20T14:38:02;9.67;;;6.30;;
29246;SDS011;16272;48.188;9.964;2023-08-20T14:40:27;11.35;;;6.85;;
29246;SDS011;16272;48.188;9.964;2023-08-20T14:42:53;12.00;;;5.70;;
29246;SDS011;16272;48.188;9.964;2023-08-20T14:45:18;9.57;;;5.83;;
29246;SDS011;16272;48.188;9.964;2023-08-20T14:47:44;14.70;;;5.70;;
29246;SDS011;16272;48.188;9.964;2023-08-20T14:50:09;10.03;;;5.40;;
29246;SDS011;16272;48.188;9.964;2023-08-20T14:52:34;9.33;;;6.07;;
29246;SDS011;16272;48.188;9.964;2023-08-20T14:55:00;9.85;;;6.20;;
29246;SDS011;16272;48.188;9.964;2023-08-20T14:57:26;11.32;;;5.82;;